Cala Pula — IBID — position and weather

sailwx.info

Track history (hours):
 
Tides and Currents Weather Stations Pressure Air Temp Water Temp Dewpoint Dewpoint Depression Visibility Wind Speed Wind Dir Waves Ship Positions

Cala Pula

Last reported at 2017-Jan-19 14:30 UTC. Time now 2017-Jan-19 15:09 UTC.
Position N 44°16' E 008°27'.

Length 189 m; draft 8 m.

Type: Cargo ship. MMSI: 247585000.

Date/timePositionNaut miles runAvg speedWind from/ knotsBaromVisibWave heightAir tempDewpointWater temp
2017-Jan-19 14:30N 44°16' E 008°27'0 0.0
2017-Jan-19 13:24N 44°16' E 008°27'0 0.0
2017-Jan-19 12:30N 44°16' E 008°27'0 0.1
2017-Jan-19 11:30N 44°16' E 008°27'0 0.0
2017-Jan-19 10:30N 44°16' E 008°27'0 0.0
2017-Jan-19 09:30N 44°16' E 008°27'0 0.0
2017-Jan-19 08:30N 44°16' E 008°27'0 0.0
2017-Jan-19 07:30N 44°16' E 008°27'0 0.0
2017-Jan-19 06:30N 44°16' E 008°27'0 0.0
2017-Jan-19 05:30N 44°16' E 008°27'0 0.0
2017-Jan-19 04:30N 44°16' E 008°27'0 0.0
2017-Jan-19 03:30N 44°16' E 008°27'0 0.0
2017-Jan-19 02:24N 44°16' E 008°27'0 0.0
2017-Jan-19 01:30N 44°16' E 008°27'0 0.0
2017-Jan-19 00:24N 44°16' E 008°27'0 0.0
2017-Jan-18 23:30N 44°16' E 008°27'0 0.0
2017-Jan-18 22:30N 44°16' E 008°27'0 0.0
2017-Jan-18 21:30N 44°16' E 008°27'0 0.0
2017-Jan-18 20:30N 44°16' E 008°27'0 0.0
2017-Jan-18 19:30N 44°16' E 008°27'0 0.0
2017-Jan-18 18:30N 44°16' E 008°27'0 0.0
2017-Jan-18 17:30N 44°16' E 008°27'0 0.0
2017-Jan-18 16:30N 44°16' E 008°27'0 0.0
2017-Jan-18 15:30N 44°16' E 008°27'0 0.0
2017-Jan-18 14:30N 44°16' E 008°27'1 1.0
2017-Jan-18 13:33N 44°16' E 008°29'8 7.6
2017-Jan-18 12:33N 44°08' E 008°28'5317.8
2017-Jan-18 09:33N 43°31' E 007°34'1919.4
2017-Jan-18 08:34N 43°19' E 007°14'31416.4
2017-Jan-17 13:29N 40°25' E 001°23'17917.3
2017-Jan-17 03:09N 37°45' W 000°21'1220.1
2017-Jan-17 02:32N 37°35' W 000°30'2020.3
2017-Jan-17 01:33N 37°20' W 000°46'41415.7
2017-Jan-15 23:10N 38°20' W 009°25'1321.6
2017-Jan-15 22:33N 38°33' W 009°23'1515.1
2017-Jan-15 21:33N 38°42' W 009°08'2 0.2
2017-Jan-15 13:18N 38°43' W 009°06'7 8.9
2017-Jan-15 12:33N 38°41' W 009°15'1212.2
2017-Jan-15 11:33N 38°35' W 009°28'2020.2
2017-Jan-15 10:33N 38°30' W 009°53'68719.6
2017-Jan-13 23:33N 36°25' W 024°05'1919.7
2017-Jan-13 22:33N 36°20' W 024°28'2019.6
2017-Jan-13 21:33N 36°15' W 024°52'2019.8
2017-Jan-13 20:33N 36°10' W 025°15'2019.9
2017-Jan-13 19:34N 36°04' W 025°39'  
Track history (hours):
 
Tides and Currents Weather Stations Pressure Air Temp Water Temp Dewpoint Dewpoint Depression Visibility Wind Speed Wind Dir Waves Ship Positions

Cala Pula

Last reported at 2017-Jan-19 14:30 UTC. Time now 2017-Jan-19 15:09 UTC.
Position N 44°16' E 008°27'.

Length 189 m; draft 8 m.

Type: Cargo ship. MMSI: 247585000.

Date/timePositionNaut miles runAvg speedWind from/ knotsBaromVisibWave heightAir tempDewpointWater temp
2017-Jan-19 14:30N 44°16' E 008°27'0 0.0
2017-Jan-19 13:24N 44°16' E 008°27'0 0.0
2017-Jan-19 12:30N 44°16' E 008°27'0 0.1
2017-Jan-19 11:30N 44°16' E 008°27'0 0.0
2017-Jan-19 10:30N 44°16' E 008°27'0 0.0
2017-Jan-19 09:30N 44°16' E 008°27'0 0.0
2017-Jan-19 08:30N 44°16' E 008°27'0 0.0
2017-Jan-19 07:30N 44°16' E 008°27'0 0.0
2017-Jan-19 06:30N 44°16' E 008°27'0 0.0
2017-Jan-19 05:30N 44°16' E 008°27'0 0.0
2017-Jan-19 04:30N 44°16' E 008°27'0 0.0
2017-Jan-19 03:30N 44°16' E 008°27'0 0.0
2017-Jan-19 02:24N 44°16' E 008°27'0 0.0
2017-Jan-19 01:30N 44°16' E 008°27'0 0.0
2017-Jan-19 00:24N 44°16' E 008°27'0 0.0
2017-Jan-18 23:30N 44°16' E 008°27'0 0.0
2017-Jan-18 22:30N 44°16' E 008°27'0 0.0
2017-Jan-18 21:30N 44°16' E 008°27'0 0.0
2017-Jan-18 20:30N 44°16' E 008°27'0 0.0
2017-Jan-18 19:30N 44°16' E 008°27'0 0.0
2017-Jan-18 18:30N 44°16' E 008°27'0 0.0
2017-Jan-18 17:30N 44°16' E 008°27'0 0.0
2017-Jan-18 16:30N 44°16' E 008°27'0 0.0
2017-Jan-18 15:30N 44°16' E 008°27'0 0.0
2017-Jan-18 14:30N 44°16' E 008°27'1 1.0
2017-Jan-18 13:33N 44°16' E 008°29'8 7.6
2017-Jan-18 12:33N 44°08' E 008°28'5317.8
2017-Jan-18 09:33N 43°31' E 007°34'1919.4
2017-Jan-18 08:34N 43°19' E 007°14'31416.4
2017-Jan-17 13:29N 40°25' E 001°23'17917.3
2017-Jan-17 03:09N 37°45' W 000°21'1220.1
2017-Jan-17 02:32N 37°35' W 000°30'2020.3
2017-Jan-17 01:33N 37°20' W 000°46'41415.7
2017-Jan-15 23:10N 38°20' W 009°25'1321.6
2017-Jan-15 22:33N 38°33' W 009°23'1515.1
2017-Jan-15 21:33N 38°42' W 009°08'2 0.2
2017-Jan-15 13:18N 38°43' W 009°06'7 8.9
2017-Jan-15 12:33N 38°41' W 009°15'1212.2
2017-Jan-15 11:33N 38°35' W 009°28'2020.2
2017-Jan-15 10:33N 38°30' W 009°53'68719.6
2017-Jan-13 23:33N 36°25' W 024°05'1919.7
2017-Jan-13 22:33N 36°20' W 024°28'2019.6
2017-Jan-13 21:33N 36°15' W 024°52'2019.8
2017-Jan-13 20:33N 36°10' W 025°15'2019.9
2017-Jan-13 19:34N 36°04' W 025°39'  

Dump ship's entire track history